Capitol Logistics 2566


KMIA
Miami International Airport
Miami, Florida, US
KMEM
Memphis International Airport
Memphis, Tennessee, US

Activity Log

Date Flight Route Aircraft Duration
10/14/2020 CPX2566 WINCO2 WINCO CHRRI SMELZ PATOY VUZ WASER VANZE2 B763 2h 23m
11/18/2019 CPX2566 WINCO2 WINCO CHRRI SMELZ PATOY VUZ WASER VANZE2 B744 2h 14m

Route Details

Aircraft Information
Primary: Boeing 747-400BCF
Backup: Boeing 767-300BDSF
Date Restrictions
Between:Nov 16, 2019
Dec 31, 2019
Route Data
Distance: 748nm
Sched. Duration: 2h 12m
Avg. Duration: 2h 18m (+7m)
Times Flown: 2
Recm'd Route: WINCO2 WINCO CHRRI SMELZ PATOY VUZ WASER VANZE2
Planned Altitude: 34,000ft
Origin Wx: KMIA 291753Z 13009G17KT 100V180 10SM SCT024 BKN032 31/24 A2993 RMK AO2 SLP136 60000 T03060239 10311 20272 58020
Dest. Wx: KMEM 291837Z 24010G16KT 210V270 7SM -RA BKN008 BKN012 OVC024 09/07 A2978 RMK AO2 P0003 T00890072 $
Notes: SEASONAL FLIGHT | FEDEX SURGE OPS CONTRACT

Financial History
Total Freight: 341,243lbs
Average Load: 170,622lbs/flt
Fuel Used: 69,592lbs
Avg. Fuel Used: 34,796lbs/flt
Fuel Expense: $85,598
Avg. Fuel Expense: $42,799
Avg. Fuel Cost: $1.23/lbs
Total Gross Income: $644,949
Pilot Pay: $498
Total Expenses: $69,759
Total Revenue: $488,432
Average Revenue: $322,474.63